Holt, FL

10:38 AM CST on February 28, 2015 (GMT -0600)
Whiting Field Naval Air Station (South) | Change Station
CLOSE
Current Station
Airport
Location: Milton,
Elevation: 177 ft
Nearby Weather Stations

Elev 177 ft 30.70 °N, 87.02 °W | Updated 42 minutes ago

Partly Cloudy
Partly Cloudy
54 °F
Feels Like 54 °F
N
10
Wind Variable Wind from ENE

Today
High -- | Low -- °F
--% Chance of Precip.
Yesterday
High -- | Low -- °F
Precip. -- in
6:15 AM 5:45 PM
Waxing Gibbous, 78% visible
Pressure 30.41 in
Visibility 10.0 miles
Clouds Mostly Cloudy 3200 ft
Overcast 3900 ft
Dew Point 36 °F
Humidity 51%
Rainfall 0.00 in
Snow Depth Not available.
UV 2 out of 12
Pollen 8.60 out of 12
Air Quality Not available.
Flu Activity Not available.
METAR KNDZ 281556Z AUTO 07009KT 10SM BKN032 OVC039 12/02 A3045 RMK AO2 SLP298 T01220022 $

More Conditions Fewer Conditions

Pressure 30.41 in
Visibility 10.0 miles
Clouds Mostly Cloudy 3200 ft
Overcast 3900 ft
Dew Point 36 °F
Humidity 51%
Rainfall 0.00 in
Snow Depth Not available.
UV 2 out of 12
Pollen 8.60 out of 12
Air Quality Not available.
Flu Activity Not available.
METAR KNDZ 281556Z AUTO 07009KT 10SM BKN032 OVC039 12/02 A3045 RMK AO2 SLP298 T01220022 $

More Conditions Fewer Conditions

10-Day Weather Forecast

Almanac

Astronomy

Feb. 28, 2015 Rise Set
Actual Time
Civil Twilight
Nautical Twilight
Astronomical Twilight
Moon
Length of Visible Light
Length of Day
Tomorrow will be .
, % of the Moon is Illuminated

Today's Extremes

State Highs State Lows

Community

WunderPhotos

Upload Photos

1,801,078 photos uploaded!

WunderBlogs® & News

Nearby

Air Quality

  Air Quality AQ Index Pollutant
Not available.

Snow Depth

Station Depth Elevation

Earthquake Activity

City Distance Mag. Time & Date
Minimum magnitude displayed is 2.5.

Coastal Water Temperatures

Place Temperature

Nearby Weather Stations